Time;durP1;ratioP1;P1;durP2;ratioP2;P2;SDS_P1;SDS_P2;PMS_P1;PMS_P2;Temp;Humidity;BMP_temperature;BMP_pressure;BME280_temperature;BME280_humidity;BME280_pressure;Samples;Min_cycle;Max_cycle;Signal;HPM_P1;HPM_P2
2022/02/15 00:01:01;;;;;;;0.50;0.50;;;19.20;99.90;;;;;;5007811;28;20054;-59
2022/02/15 00:03:30;;;;;;;0.75;0.75;;;19.10;99.90;;;;;;5012663;28;20108;-60
2022/02/15 00:05:58;;;;;;;1.30;0.90;;;19.10;99.90;;;;;;5018075;28;20041;-60
2022/02/15 00:08:25;;;;;;;0.38;0.38;;;19.10;99.90;;;;;;5026199;28;20049;-59
2022/02/15 00:10:53;;;;;;;1.17;0.85;;;19.10;99.90;;;;;;5007003;28;20034;-60
2022/02/15 00:13:20;;;;;;;0.40;0.40;;;19.10;99.90;;;;;;5016809;28;20060;-60
2022/02/15 00:15:48;;;;;;;0.57;0.57;;;19.10;99.90;;;;;;5017512;28;20132;-60
2022/02/15 00:18:15;;;;;;;3.53;1.20;;;19.10;99.90;;;;;;5021367;28;20053;-60
2022/02/15 00:20:44;;;;;;;0.32;0.32;;;19.10;99.90;;;;;;5009069;28;20441;-59
2022/02/15 00:23:11;;;;;;;0.30;0.30;;;19.00;99.90;;;;;;5016905;28;20056;-58
2022/02/15 00:25:39;;;;;;;0.30;0.30;;;19.00;99.90;;;;;;5014625;28;20052;-59
2022/02/15 00:28:06;;;;;;;1.42;1.08;;;19.00;99.90;;;;;;5014170;28;20038;-60
2022/02/15 00:30:33;;;;;;;0.30;0.30;;;19.00;99.90;;;;;;5013986;28;20050;-60
2022/02/15 00:33:03;;;;;;;0.40;0.40;;;19.10;99.90;;;;;;5010714;28;20061;-57
2022/02/15 00:35:30;;;;;;;0.50;0.50;;;19.10;99.90;;;;;;5013781;28;20053;-60
2022/02/15 00:37:57;;;;;;;0.43;0.43;;;19.10;99.90;;;;;;5006951;28;20065;-60
2022/02/15 00:40:26;;;;;;;1.38;1.27;;;19.10;99.90;;;;;;5025606;28;20057;-60
2022/02/15 00:42:53;;;;;;;0.80;0.77;;;19.10;99.90;;;;;;5029994;28;20041;-61
2022/02/15 00:45:21;;;;;;;0.38;0.38;;;19.10;99.90;;;;;;4997670;28;20050;-60
2022/02/15 00:47:48;;;;;;;0.30;0.30;;;19.10;99.90;;;;;;5018595;28;20041;-61
2022/02/15 00:50:17;;;;;;;0.45;0.45;;;19.10;99.90;;;;;;5030041;28;20041;-57
2022/02/15 00:52:44;;;;;;;0.30;0.30;;;19.10;99.90;;;;;;5004019;28;20049;-61
2022/02/15 00:55:13;;;;;;;1.63;0.68;;;19.10;99.90;;;;;;5014130;28;20056;-60
2022/02/15 00:57:41;;;;;;;0.40;0.40;;;19.10;99.90;;;;;;5008375;28;20089;-60
2022/02/15 01:00:11;;;;;;;0.30;0.30;;;19.10;99.90;;;;;;5007399;28;20057;-60
2022/02/15 01:02:38;;;;;;;1.25;1.05;;;19.10;99.90;;;;;;5017548;28;20049;-58
2022/02/15 01:05:07;;;;;;;0.30;0.30;;;19.10;99.90;;;;;;5003768;28;20045;-60
2022/02/15 01:07:37;;;;;;;0.30;0.30;;;19.10;99.90;;;;;;5002686;28;20064;-60
2022/02/15 01:10:06;;;;;;;0.40;0.40;;;19.00;99.90;;;;;;5018128;28;20394;-60
2022/02/15 01:12:34;;;;;;;0.40;0.40;;;19.00;99.90;;;;;;5008843;28;20569;-61
2022/02/15 01:15:02;;;;;;;0.52;0.52;;;18.90;99.90;;;;;;5017581;28;20064;-60
2022/02/15 01:17:30;;;;;;;0.30;0.30;;;18.90;99.90;;;;;;5016109;28;20057;-60
2022/02/15 01:19:58;;;;;;;0.30;0.30;;;18.90;99.90;;;;;;5016317;28;20066;-57
2022/02/15 01:22:25;;;;;;;1.27;0.77;;;18.90;99.90;;;;;;5021343;28;20045;-60
2022/02/15 01:24:53;;;;;;;0.30;0.30;;;18.90;99.90;;;;;;5019179;28;20436;-59
2022/02/15 01:27:20;;;;;;;;;;;18.90;99.90;;;;;;4997640;28;20057;-59
2022/02/15 01:29:50;;;;;;;0.30;0.30;;;18.80;99.90;;;;;;4997270;28;20380;-59
2022/02/15 01:32:18;;;;;;;0.20;0.20;;;18.90;99.90;;;;;;5005947;28;20133;-58
2022/02/15 01:34:45;;;;;;;0.30;0.30;;;18.90;99.90;;;;;;5005454;28;20049;-59
2022/02/15 01:37:15;;;;;;;0.70;0.70;;;18.90;99.90;;;;;;5009338;28;20054;-58
2022/02/15 01:39:42;;;;;;;0.45;0.45;;;18.90;99.90;;;;;;5006269;28;20877;-58
2022/02/15 01:42:10;;;;;;;0.20;0.20;;;18.80;99.90;;;;;;4999029;28;20402;-57
2022/02/15 01:44:38;;;;;;;0.30;0.30;;;18.80;99.90;;;;;;4998508;28;20053;-56
2022/02/15 01:47:07;;;;;;;0.30;0.30;;;18.80;99.90;;;;;;5017661;28;20413;-56
2022/02/15 01:49:35;;;;;;;0.30;0.30;;;18.80;99.90;;;;;;5021447;28;20048;-59
2022/02/15 01:52:03;;;;;;;0.30;0.30;;;18.80;99.90;;;;;;5024872;28;20050;-61
2022/02/15 01:54:30;;;;;;;;;;;18.80;99.90;;;;;;5021131;28;20057;-59
2022/02/15 01:56:58;;;;;;;;;;;18.80;99.90;;;;;;5005170;28;19926;-58
2022/02/15 01:59:26;;;;;;;1.27;1.17;;;18.80;99.90;;;;;;5000173;28;19925;-58
2022/02/15 02:01:53;;;;;;;0.30;0.30;;;18.80;99.90;;;;;;4997511;28;20403;-59
2022/02/15 02:07:08;;;;;;;0.30;0.30;;;18.80;99.90;;;;;;4999635;28;20076;-60
2022/02/15 02:09:38;;;;;;;0.30;0.30;;;18.80;99.90;;;;;;5012987;28;20511;-62
2022/02/15 02:12:06;;;;;;;0.32;0.32;;;18.80;99.90;;;;;;4997094;28;20046;-58
2022/02/15 02:14:42;;;;;;;0.30;0.30;;;18.80;99.90;;;;;;5002859;28;20057;-59
2022/02/15 02:17:09;;;;;;;0.30;0.30;;;18.80;99.90;;;;;;4997411;28;20061;-61
2022/02/15 02:19:39;;;;;;;0.50;0.50;;;18.80;99.90;;;;;;5008298;28;20051;-60
2022/02/15 02:22:06;;;;;;;;;;;18.80;99.90;;;;;;5024237;28;20069;-60
2022/02/15 02:24:34;;;;;;;0.50;0.50;;;18.80;99.90;;;;;;4997644;28;20021;-60
2022/02/15 02:27:03;;;;;;;0.35;0.35;;;18.80;99.90;;;;;;5014235;28;20052;-61
2022/02/15 02:29:30;;;;;;;;;;;18.80;99.90;;;;;;4990300;28;20054;-60
2022/02/15 02:31:58;;;;;;;0.30;0.30;;;18.80;99.90;;;;;;5006802;28;19930;-61
2022/02/15 02:34:27;;;;;;;0.40;0.40;;;18.80;99.90;;;;;;5000452;28;20162;-58
2022/02/15 02:36:54;;;;;;;0.30;0.30;;;18.70;99.90;;;;;;4984934;28;20046;-60
2022/02/15 02:39:25;;;;;;;0.30;0.30;;;18.70;99.90;;;;;;5002491;28;20069;-60
2022/02/15 02:41:55;;;;;;;2.10;1.13;;;18.70;99.90;;;;;;5003502;28;20057;-60
2022/02/15 02:44:22;;;;;;;0.30;0.30;;;18.70;99.90;;;;;;5001056;28;20050;-55
2022/02/15 02:46:50;;;;;;;;;;;18.70;99.90;;;;;;5000335;28;20046;-58
2022/02/15 02:49:19;;;;;;;0.30;0.30;;;18.70;99.90;;;;;;5024172;28;19930;-60
2022/02/15 02:51:47;;;;;;;0.40;0.40;;;18.70;99.90;;;;;;5001884;28;20422;-60
2022/02/15 02:54:16;;;;;;;1.23;0.98;;;18.60;99.90;;;;;;5003298;28;20053;-58
2022/02/15 02:56:59;;;;;;;0.30;0.30;;;18.70;99.90;;;;;;5002934;28;20434;-61
2022/02/15 02:59:30;;;;;;;0.30;0.30;;;18.70;99.90;;;;;;4990182;28;20050;-58
2022/02/15 03:02:03;;;;;;;0.50;0.50;;;18.60;99.90;;;;;;5008300;28;20057;-58
2022/02/15 03:04:32;;;;;;;0.47;0.47;;;18.60;99.90;;;;;;5005926;28;20053;-60
2022/02/15 03:07:00;;;;;;;0.30;0.30;;;18.60;99.90;;;;;;4994422;28;20073;-60
2022/02/15 03:09:28;;;;;;;0.30;0.30;;;18.60;99.90;;;;;;4992683;28;20050;-60
2022/02/15 03:11:58;;;;;;;0.50;0.50;;;18.60;99.90;;;;;;5012529;28;20050;-60
2022/02/15 03:14:25;;;;;;;;;;;18.70;99.90;;;;;;4995506;28;20544;-62
2022/02/15 03:16:56;;;;;;;0.30;0.30;;;18.70;99.90;;;;;;5018327;28;19921;-58
2022/02/15 03:19:24;;;;;;;0.52;0.52;;;18.70;99.90;;;;;;5003369;28;20352;-60
2022/02/15 03:21:52;;;;;;;0.70;0.70;;;18.60;99.90;;;;;;5000224;28;20049;-59
2022/02/15 03:24:19;;;;;;;1.25;0.75;;;18.60;99.90;;;;;;4997881;28;20077;-59
2022/02/15 03:26:53;;;;;;;1.92;0.98;;;18.70;99.90;;;;;;5000832;28;20346;-61
2022/02/15 03:29:22;;;;;;;0.30;0.30;;;18.70;99.90;;;;;;4991964;28;20053;-59
2022/02/15 03:31:50;;;;;;;0.38;0.38;;;18.60;99.90;;;;;;4992272;28;20058;-60
2022/02/15 03:34:20;;;;;;;0.30;0.30;;;18.60;99.90;;;;;;5000333;28;20065;-61
2022/02/15 03:36:47;;;;;;;0.30;0.30;;;18.60;99.90;;;;;;5001740;28;20046;-60
2022/02/15 03:39:14;;;;;;;0.30;0.30;;;18.60;99.90;;;;;;5002511;28;20073;-61
2022/02/15 03:44:32;;;;;;;0.30;0.30;;;18.60;99.90;;;;;;5008773;28;20047;-59
2022/02/15 03:47:04;;;;;;;0.30;0.30;;;18.60;99.90;;;;;;5002132;28;20498;-59
2022/02/15 03:49:36;;;;;;;0.80;0.70;;;18.60;99.90;;;;;;4990154;28;20054;-59
2022/02/15 03:52:04;;;;;;;;;;;18.60;99.90;;;;;;5002914;28;20057;-59
2022/02/15 03:54:32;;;;;;;0.30;0.30;;;18.60;99.90;;;;;;4999471;28;19922;-58
2022/02/15 03:57:00;;;;;;;0.40;0.40;;;18.60;99.90;;;;;;5000745;28;20061;-58
2022/02/15 03:59:30;;;;;;;0.40;0.40;;;18.60;99.90;;;;;;5003877;28;20049;-60
2022/02/15 04:01:58;;;;;;;0.40;0.40;;;18.60;99.90;;;;;;4992190;28;20054;-61
2022/02/15 04:04:28;;;;;;;0.30;0.30;;;18.60;99.90;;;;;;4986514;28;20458;-61
2022/02/15 04:06:55;;;;;;;0.45;0.45;;;18.60;99.90;;;;;;4992372;28;20086;-60
2022/02/15 04:09:23;;;;;;;0.32;0.32;;;18.60;99.90;;;;;;4990177;28;20057;-61
2022/02/15 04:11:51;;;;;;;0.52;0.52;;;18.60;99.90;;;;;;4989178;28;20049;-60
2022/02/15 04:14:25;;;;;;;0.65;0.65;;;18.50;99.90;;;;;;4987936;28;20058;-59
2022/02/15 04:16:52;;;;;;;0.40;0.40;;;18.60;99.90;;;;;;4991723;28;20389;-60
2022/02/15 04:19:20;;;;;;;1.55;0.82;;;18.50;99.90;;;;;;4994207;28;20149;-61
2022/02/15 04:21:48;;;;;;;;;;;18.60;99.90;;;;;;5000268;28;20050;-60
2022/02/15 04:24:16;;;;;;;;;;;18.50;99.90;;;;;;5001901;28;19929;-61
2022/02/15 04:26:44;;;;;;;0.30;0.30;;;18.50;99.90;;;;;;4992625;28;19925;-59
2022/02/15 04:29:14;;;;;;;0.50;0.50;;;18.50;99.90;;;;;;4985079;28;20062;-59
2022/02/15 04:31:50;;;;;;;0.30;0.30;;;18.40;99.90;;;;;;5002768;28;20061;-61
2022/02/15 04:34:18;;;;;;;;;;;18.50;99.90;;;;;;5005574;28;20049;-60
2022/02/15 04:36:48;;;;;;;0.30;0.30;;;18.50;99.90;;;;;;4998879;28;20361;-59
2022/02/15 04:39:15;;;;;;;0.30;0.30;;;18.50;99.90;;;;;;4987339;28;20378;-57
2022/02/15 04:41:54;;;;;;;0.30;0.30;;;18.50;99.90;;;;;;5006832;28;20042;-57
2022/02/15 04:44:22;;;;;;;0.40;0.40;;;18.50;99.90;;;;;;4997212;28;20054;-58
2022/02/15 04:46:50;;;;;;;0.30;0.30;;;18.50;99.90;;;;;;5001051;28;20054;-62
2022/02/15 04:49:21;;;;;;;0.38;0.38;;;18.50;99.90;;;;;;5001495;28;20065;-59
2022/02/15 04:51:48;;;;;;;0.50;0.50;;;18.50;99.90;;;;;;4996146;28;20472;-60
2022/02/15 04:54:17;;;;;;;0.30;0.30;;;18.50;99.90;;;;;;4990621;28;20053;-62
2022/02/15 05:00:58;;;;;;;2.28;1.10;;;18.60;99.90;;;;;;5000328;28;20036;-59
2022/02/15 05:03:44;;;;;;;0.30;0.30;;;18.70;99.90;;;;;;4998581;28;20589;-62
2022/02/15 05:06:12;;;;;;;0.40;0.40;;;18.90;99.90;;;;;;4996763;28;20057;-60
2022/02/15 05:08:39;;;;;;;0.32;0.25;;;19.00;99.90;;;;;;5001804;28;20434;-60
2022/02/15 05:11:07;;;;;;;0.47;0.47;;;19.10;99.90;;;;;;4998245;28;20054;-59
2022/02/15 05:13:44;;;;;;;0.50;0.50;;;19.20;99.90;;;;;;4977223;28;20518;-59
2022/02/15 05:16:26;;;;;;;0.30;0.30;;;19.40;99.90;;;;;;5009393;28;20068;-60
2022/02/15 05:19:04;;;;;;;0.50;0.50;;;19.50;99.90;;;;;;4991507;28;20073;-60
2022/02/15 05:21:36;;;;;;;4.68;1.17;;;19.60;99.90;;;;;;4999561;28;20054;-59
2022/02/15 05:24:04;;;;;;;2.97;1.58;;;18.90;99.90;;;;;;4991568;28;20054;-58
2022/02/15 05:26:45;;;;;;;0.55;0.50;;;18.40;99.90;;;;;;4997461;28;20124;-61
2022/02/15 05:29:24;;;;;;;0.30;0.30;;;18.70;99.90;;;;;;4997079;28;20046;-62
2022/02/15 05:31:53;;;;;;;0.57;0.57;;;19.10;99.90;;;;;;4999084;28;20073;-60
2022/02/15 05:34:20;;;;;;;0.30;0.30;;;19.40;99.90;;;;;;4995872;28;20050;-60
2022/02/15 05:36:49;;;;;;;0.30;0.30;;;19.70;99.90;;;;;;5016483;28;20400;-61
2022/02/15 05:39:18;;;;;;;0.40;0.40;;;20.00;99.90;;;;;;4994258;28;20126;-60
2022/02/15 05:41:56;;;;;;;2.30;1.23;;;20.10;99.90;;;;;;4994577;28;20053;-59
2022/02/15 05:44:25;;;;;;;0.40;0.40;;;20.30;99.90;;;;;;5007558;28;20045;-64
2022/02/15 05:46:53;;;;;;;0.50;0.50;;;20.40;99.90;;;;;;4997335;28;20051;-64
2022/02/15 05:49:20;;;;;;;1.40;0.88;;;20.60;99.90;;;;;;5005640;28;20410;-63
2022/02/15 05:51:56;;;;;;;0.80;0.70;;;20.80;99.90;;;;;;4991401;28;20046;-61
2022/02/15 05:54:27;;;;;;;0.30;0.30;;;20.90;99.90;;;;;;5004165;28;20877;-62
2022/02/15 05:56:55;;;;;;;0.85;0.60;;;21.00;99.90;;;;;;5002738;28;20069;-57
2022/02/15 05:59:33;;;;;;;0.40;0.40;;;21.10;99.90;;;;;;4996690;28;20057;-61
2022/02/15 06:02:24;;;;;;;0.30;0.30;;;21.10;99.90;;;;;;5017001;28;20069;-61
2022/02/15 06:05:05;;;;;;;0.57;0.57;;;21.10;99.90;;;;;;5015406;28;20058;-63
2022/02/15 06:07:36;;;;;;;0.50;0.50;;;21.10;99.90;;;;;;4992513;28;20579;-64
2022/02/15 06:10:32;;;;;;;14.10;2.13;;;21.00;99.90;;;;;;5003404;28;20565;-62
2022/02/15 06:13:22;;;;;;;1.88;1.40;;;21.00;99.90;;;;;;5012221;28;20064;-61
2022/02/15 06:15:50;;;;;;;13.30;3.20;;;21.00;99.90;;;;;;4999798;28;20057;-62
2022/02/15 06:18:22;;;;;;;0.95;0.88;;;21.00;99.90;;;;;;4997851;28;20057;-62
2022/02/15 06:20:55;;;;;;;0.50;0.50;;;21.00;99.90;;;;;;4994927;28;20053;-60
2022/02/15 06:23:26;;;;;;;4.40;2.20;;;21.10;99.90;;;;;;5018021;28;20054;-63
2022/02/15 06:26:03;;;;;;;0.30;0.30;;;21.00;99.90;;;;;;5002089;28;20042;-66
2022/02/15 06:28:50;;;;;;;0.88;0.88;;;21.10;99.90;;;;;;5015286;28;20053;-62
2022/02/15 06:31:20;;;;;;;0.40;0.40;;;21.20;99.90;;;;;;5001205;28;20414;-64
2022/02/15 06:33:47;;;;;;;1.75;0.90;;;21.10;99.90;;;;;;5015619;28;20418;-64
2022/02/15 06:36:16;;;;;;;2.45;1.95;;;21.10;99.90;;;;;;5017059;28;20516;-63
2022/02/15 06:38:44;;;;;;;3.95;2.58;;;21.10;99.90;;;;;;4992162;28;20061;-66
2022/02/15 06:41:21;;;;;;;1.48;0.77;;;21.10;99.90;;;;;;4998989;28;20061;-67
2022/02/15 06:43:57;;;;;;;0.65;0.65;;;21.00;99.90;;;;;;5002255;28;20552;-65
2022/02/15 06:46:40;;;;;;;0.82;0.82;;;21.10;99.90;;;;;;5002534;28;20068;-66
2022/02/15 06:49:15;;;;;;;11.20;1.27;;;21.10;99.90;;;;;;5006315;28;20064;-65
2022/02/15 06:51:51;;;;;;;8.27;2.03;;;21.10;99.90;;;;;;5036397;28;20536;-64
2022/02/15 06:54:18;;;;;;;1.13;0.98;;;21.10;99.90;;;;;;5002431;28;20417;-63
2022/02/15 06:56:48;;;;;;;2.53;1.52;;;21.00;99.90;;;;;;5007872;28;20069;-63
2022/02/15 06:59:24;;;;;;;2.03;1.33;;;21.00;99.90;;;;;;5006914;28;20045;-63
2022/02/15 07:01:51;;;;;;;0.65;0.60;;;21.00;99.90;;;;;;5000300;28;20401;-63
2022/02/15 07:04:19;;;;;;;16.77;1.40;;;21.00;99.90;;;;;;5007621;28;20061;-64
2022/02/15 07:06:52;;;;;;;0.30;0.30;;;20.90;99.90;;;;;;5005908;28;20061;-63
2022/02/15 07:09:20;;;;;;;0.50;0.50;;;20.90;99.90;;;;;;5005942;28;20057;-65
2022/02/15 07:12:06;;;;;;;0.40;0.40;;;20.90;99.90;;;;;;5006136;28;20050;-67
2022/02/15 07:14:44;;;;;;;0.85;0.80;;;20.90;99.90;;;;;;5007531;28;20049;-63
2022/02/15 07:17:26;;;;;;;0.70;0.70;;;20.80;99.90;;;;;;5001474;28;20061;-70
2022/02/15 07:19:55;;;;;;;1.08;0.75;;;20.80;99.90;;;;;;5006505;28;20140;-64
2022/02/15 07:22:56;;;;;;;2.15;1.50;;;20.80;99.90;;;;;;5009269;28;20054;-62
2022/02/15 07:25:32;;;;;;;1.77;1.63;;;20.80;99.90;;;;;;5004829;28;20049;-61
2022/02/15 07:28:18;;;;;;;0.35;0.35;;;20.70;99.90;;;;;;5002483;28;20510;-63
2022/02/15 07:30:48;;;;;;;0.40;0.40;;;20.70;99.90;;;;;;5006656;28;20053;-62
2022/02/15 07:33:21;;;;;;;1.90;1.38;;;20.70;99.90;;;;;;5021077;28;20065;-63
2022/02/15 07:35:49;;;;;;;1.55;1.10;;;20.70;99.90;;;;;;5000221;28;20057;-65
2022/02/15 07:38:17;;;;;;;3.53;2.28;;;20.80;99.90;;;;;;5025815;28;20053;-68
2022/02/15 07:40:45;;;;;;;0.50;0.50;;;20.80;99.90;;;;;;5001217;28;20076;-64
2022/02/15 07:43:12;;;;;;;1.95;1.05;;;20.90;99.90;;;;;;5022069;28;20053;-62
2022/02/15 07:45:44;;;;;;;0.68;0.68;;;21.00;99.90;;;;;;5005127;28;20041;-59
2022/02/15 07:48:12;;;;;;;0.65;0.65;;;21.20;99.90;;;;;;5023996;28;20034;-61
2022/02/15 07:50:40;;;;;;;14.35;0.95;;;21.30;99.90;;;;;;5013818;28;20060;-62
2022/02/15 07:53:08;;;;;;;3.03;1.77;;;21.50;99.90;;;;;;5018101;28;20053;-62
2022/02/15 07:55:36;;;;;;;0.82;0.52;;;21.50;99.90;;;;;;5018347;28;20120;-64
2022/02/15 07:58:04;;;;;;;2.20;1.15;;;21.50;99.90;;;;;;5018204;28;20053;-64
2022/02/15 08:00:31;;;;;;;1.20;0.65;;;21.60;99.90;;;;;;5002757;28;20140;-64
2022/02/15 08:02:59;;;;;;;3.72;2.38;;;21.60;99.90;;;;;;5003618;28;20049;-61
2022/02/15 08:05:28;;;;;;;2.00;1.30;;;21.60;99.90;;;;;;5020768;28;20052;-64
2022/02/15 08:08:03;;;;;;;0.85;0.85;;;21.60;99.90;;;;;;5001276;28;20497;-67
2022/02/15 08:10:31;;;;;;;0.68;0.60;;;21.70;99.90;;;;;;5014592;28;20406;-58
2022/02/15 08:13:01;;;;;;;0.30;0.30;;;21.90;99.90;;;;;;5016737;28;20533;-60
2022/02/15 08:15:32;;;;;;;0.40;0.40;;;22.80;99.90;;;;;;5015256;28;20054;-62
2022/02/15 08:18:01;;;;;;;3.13;0.85;;;23.10;99.90;;;;;;5021059;28;20056;-64
2022/02/15 08:20:33;;;;;;;0.60;0.60;;;22.80;99.90;;;;;;5002895;28;20395;-63
2022/02/15 08:23:00;;;;;;;1.85;1.48;;;22.50;99.90;;;;;;5015424;28;20056;-62
2022/02/15 08:25:28;;;;;;;0.30;0.30;;;22.20;99.90;;;;;;5016259;28;20060;-61
2022/02/15 08:27:56;;;;;;;0.55;0.55;;;21.80;99.90;;;;;;5021948;28;20049;-65
2022/02/15 08:30:24;;;;;;;0.60;0.60;;;21.60;99.90;;;;;;5004052;28;20136;-64
2022/02/15 08:32:52;;;;;;;1.42;0.93;;;21.50;99.90;;;;;;5013996;28;20061;-64
2022/02/15 08:35:20;;;;;;;0.50;0.50;;;21.40;99.90;;;;;;5024026;28;20054;-66
2022/02/15 08:37:51;;;;;;;0.52;0.52;;;21.40;99.90;;;;;;5017660;28;20054;-62
2022/02/15 08:40:21;;;;;;;0.50;0.50;;;21.40;99.90;;;;;;5002829;28;20050;-63
2022/02/15 08:42:49;;;;;;;2.97;1.75;;;21.40;99.90;;;;;;5020915;28;20045;-65
2022/02/15 08:45:16;;;;;;;0.80;0.80;;;21.40;99.90;;;;;;5023411;28;20045;-66
2022/02/15 08:47:45;;;;;;;1.65;1.20;;;21.30;99.90;;;;;;5025065;28;20042;-65
2022/02/15 08:50:15;;;;;;;3.53;1.60;;;21.30;99.90;;;;;;5018322;28;20065;-66
2022/02/15 08:52:45;;;;;;;0.60;0.60;;;21.30;99.90;;;;;;5022344;28;20034;-59
2022/02/15 08:55:12;;;;;;;1.13;1.02;;;21.30;99.90;;;;;;5028646;28;20050;-60
2022/02/15 08:57:41;;;;;;;4.43;0.98;;;21.20;99.90;;;;;;5015727;28;20077;-59
2022/02/15 09:00:10;;;;;;;2.03;0.80;;;21.20;99.90;;;;;;5008900;28;20072;-61
2022/02/15 09:02:38;;;;;;;1.27;1.10;;;21.20;99.90;;;;;;5022729;28;20064;-62
2022/02/15 09:05:09;;;;;;;0.82;0.60;;;21.10;99.90;;;;;;5016284;28;20053;-60
2022/02/15 09:07:36;;;;;;;20.75;1.77;;;21.10;99.90;;;;;;5028916;28;20041;-62
2022/02/15 09:10:04;;;;;;;;;;;21.10;99.90;;;;;;5030788;28;20073;-65
2022/02/15 09:12:32;;;;;;;0.65;0.65;;;21.00;99.90;;;;;;5028635;28;19932;-63
2022/02/15 09:15:00;;;;;;;1.55;0.93;;;21.00;99.90;;;;;;5021861;28;20473;-63
2022/02/15 09:17:27;;;;;;;0.52;0.50;;;21.00;99.90;;;;;;5026040;28;20060;-62
2022/02/15 09:19:54;;;;;;;1.30;0.73;;;21.00;99.90;;;;;;5027950;28;20060;-59
2022/02/15 09:22:22;;;;;;;0.40;0.40;;;21.00;99.90;;;;;;5027454;28;20064;-60
2022/02/15 09:24:51;;;;;;;0.30;0.30;;;21.10;99.90;;;;;;5024821;28;20049;-62
2022/02/15 09:27:18;;;;;;;0.63;0.63;;;21.10;99.90;;;;;;5025951;28;20318;-60
2022/02/15 09:29:46;;;;;;;0.30;0.30;;;21.20;99.90;;;;;;5029121;28;20101;-64
2022/02/15 09:32:13;;;;;;;0.55;0.55;;;21.30;99.90;;;;;;5027619;28;20049;-62
2022/02/15 09:34:40;;;;;;;0.50;0.50;;;21.40;99.90;;;;;;5022853;28;20516;-63
2022/02/15 09:37:10;;;;;;;0.80;0.60;;;21.40;99.90;;;;;;5029504;28;20037;-60
2022/02/15 09:39:37;;;;;;;1.20;1.10;;;21.60;99.90;;;;;;5021486;28;20045;-64
2022/02/15 09:42:04;;;;;;;0.77;0.77;;;21.60;99.90;;;;;;5025139;28;20377;-61
2022/02/15 09:44:32;;;;;;;0.47;0.47;;;21.70;99.90;;;;;;5028385;28;20057;-62
2022/02/15 09:46:59;;;;;;;0.55;0.45;;;21.70;99.90;;;;;;5024408;28;20377;-64
2022/02/15 09:52:17;;;;;;;0.30;0.30;;;21.70;99.90;;;;;;5020760;28;20603;-64
2022/02/15 09:54:46;;;;;;;0.65;0.65;;;21.70;99.90;;;;;;5018643;28;20041;-64
2022/02/15 09:57:14;;;;;;;0.65;0.65;;;21.70;99.90;;;;;;5031715;28;20602;-57
2022/02/15 09:59:41;;;;;;;2.55;1.67;;;21.70;99.90;;;;;;5021390;28;20048;-62
2022/02/15 10:02:13;;;;;;;0.63;0.63;;;21.70;99.90;;;;;;5019432;28;20057;-61
2022/02/15 10:04:41;;;;;;;0.60;0.60;;;21.80;99.90;;;;;;5024965;28;20054;-62
2022/02/15 10:07:10;;;;;;;0.63;0.45;;;21.70;99.90;;;;;;5008951;28;20421;-59
2022/02/15 10:09:37;;;;;;;17.70;3.97;;;21.70;99.90;;;;;;5024556;28;20053;-63
2022/02/15 10:12:11;;;;;;;0.40;0.40;;;21.30;99.90;;;;;;5022243;28;20045;-58
2022/02/15 10:14:41;;;;;;;2.65;0.50;;;20.60;99.90;;;;;;5023259;28;20054;-67
2022/02/15 10:17:13;;;;;;;1.10;0.80;;;20.20;99.90;;;;;;5023214;28;20053;-60
2022/02/15 10:19:43;;;;;;;0.30;0.30;;;20.30;99.90;;;;;;5022720;28;20560;-61
2022/02/15 10:22:11;;;;;;;1.23;0.50;;;20.60;99.90;;;;;;5023251;28;20045;-64
2022/02/15 10:24:39;;;;;;;1.17;0.82;;;20.90;99.90;;;;;;5025833;28;20048;-59
2022/02/15 10:27:10;;;;;;;0.60;0.60;;;21.00;99.90;;;;;;5019825;28;20753;-59
2022/02/15 10:29:41;;;;;;;0.50;0.50;;;21.10;99.90;;;;;;5024974;28;20513;-60
2022/02/15 10:32:13;;;;;;;4.00;2.40;;;21.10;99.90;;;;;;5017146;28;20494;-60
2022/02/15 10:34:49;;;;;;;0.30;0.30;;;21.10;99.90;;;;;;5020994;28;20049;-59
2022/02/15 10:37:17;;;;;;;0.30;0.30;;;21.10;99.90;;;;;;5020930;28;20503;-62
2022/02/15 10:39:54;;;;;;;;;;;21.00;99.90;;;;;;4998739;28;20065;-62
2022/02/15 10:42:23;;;;;;;0.43;0.43;;;21.00;99.90;;;;;;5010459;28;19932;-59
2022/02/15 10:44:54;;;;;;;0.40;0.40;;;21.00;99.90;;;;;;5025424;28;20045;-61
2022/02/15 10:47:22;;;;;;;0.55;0.55;;;21.00;99.90;;;;;;5026244;28;20083;-60
2022/02/15 10:49:56;;;;;;;0.40;0.40;;;21.00;99.90;;;;;;5022674;28;20041;-58
2022/02/15 10:52:25;;;;;;;0.40;0.40;;;21.10;99.90;;;;;;5023477;28;20108;-58
2022/02/15 10:54:52;;;;;;;2.40;0.93;;;21.10;99.90;;;;;;5023355;28;20045;-65
2022/02/15 10:57:22;;;;;;;;;;;21.20;99.90;;;;;;5020906;28;20045;-63
2022/02/15 10:59:52;;;;;;;0.30;0.30;;;21.20;99.90;;;;;;5021390;28;19929;-63
2022/02/15 11:02:31;;;;;;;4.05;1.17;;;21.30;99.90;;;;;;5025096;28;20061;-62
2022/02/15 11:05:02;;;;;;;0.40;0.40;;;21.40;99.90;;;;;;5038477;28;20049;-68
2022/02/15 11:07:32;;;;;;;0.40;0.40;;;21.40;99.90;;;;;;5031329;28;20544;-64
2022/02/15 11:10:19;;;;;;;0.80;0.80;;;21.50;99.90;;;;;;5030130;28;20045;-68
2022/02/15 11:13:01;;;;;;;0.30;0.30;;;21.60;99.90;;;;;;5005716;28;20528;-66
2022/02/15 11:15:38;;;;;;;0.40;0.40;;;21.60;99.90;;;;;;5011644;28;20054;-61
2022/02/15 11:18:07;;;;;;;3.10;2.05;;;21.60;99.90;;;;;;5021356;28;20524;-62
2022/02/15 11:20:54;;;;;;;0.50;0.50;;;21.70;99.90;;;;;;5038810;28;20521;-64
2022/02/15 11:23:26;;;;;;;0.30;0.30;;;21.70;99.90;;;;;;5007937;28;20061;-62
2022/02/15 11:26:10;;;;;;;1.23;1.02;;;21.70;99.90;;;;;;5022322;28;20497;-67
2022/02/15 11:28:52;;;;;;;0.40;0.40;;;21.70;99.90;;;;;;5023692;28;20048;-60
2022/02/15 11:31:27;;;;;;;2.10;1.20;;;21.70;99.90;;;;;;5022070;28;20458;-63
2022/02/15 11:33:56;;;;;;;7.07;2.83;;;21.70;99.90;;;;;;5018181;28;20501;-67
2022/02/15 11:36:24;;;;;;;1.65;0.50;;;21.60;99.90;;;;;;5022772;28;20046;-65
2022/02/15 11:39:02;;;;;;;0.88;0.85;;;21.50;99.90;;;;;;5021668;28;20513;-62
2022/02/15 11:41:42;;;;;;;1.65;1.05;;;21.50;99.90;;;;;;5013736;28;20670;-63
2022/02/15 11:44:10;;;;;;;0.52;0.52;;;21.40;99.90;;;;;;5022733;28;20053;-63
2022/02/15 11:46:46;;;;;;;0.63;0.63;;;21.30;99.90;;;;;;5014144;28;20049;-63
2022/02/15 11:49:15;;;;;;;1.65;0.90;;;21.30;99.90;;;;;;5025184;28;20052;-61
2022/02/15 11:51:49;;;;;;;0.30;0.30;;;21.30;99.90;;;;;;5020735;28;20422;-63
2022/02/15 11:54:21;;;;;;;0.47;0.47;;;21.30;99.90;;;;;;5020464;28;20044;-63
2022/02/15 11:56:52;;;;;;;0.35;0.35;;;21.20;99.90;;;;;;5024819;28;20133;-62
2022/02/15 11:59:25;;;;;;;0.75;0.75;;;21.20;99.90;;;;;;5026065;28;20088;-64
2022/02/15 12:01:56;;;;;;;0.35;0.35;;;21.20;99.90;;;;;;5019503;28;20049;-61
2022/02/15 12:04:26;;;;;;;0.50;0.50;;;21.10;99.90;;;;;;5018000;28;20441;-60
2022/02/15 12:06:54;;;;;;;0.45;0.45;;;21.10;99.90;;;;;;5023378;28;20357;-62
2022/02/15 12:09:35;;;;;;;0.65;0.65;;;21.10;99.90;;;;;;5025011;28;20042;-63
2022/02/15 12:12:13;;;;;;;0.30;0.30;;;21.00;99.90;;;;;;5018850;28;20053;-62
2022/02/15 12:14:41;;;;;;;3.33;1.15;;;21.00;99.90;;;;;;5017657;28;20045;-66
2022/02/15 12:17:08;;;;;;;0.52;0.52;;;20.90;99.90;;;;;;5023874;28;20390;-63
2022/02/15 12:19:41;;;;;;;2.33;1.30;;;21.00;99.90;;;;;;5000570;28;20179;-66
2022/02/15 12:22:16;;;;;;;0.63;0.63;;;21.00;99.90;;;;;;5021647;28;20046;-64
2022/02/15 12:24:53;;;;;;;0.93;0.50;;;21.10;99.90;;;;;;5009110;28;20057;-62
2022/02/15 12:27:22;;;;;;;0.50;0.50;;;21.20;99.90;;;;;;5014898;28;20061;-66
2022/02/15 12:29:51;;;;;;;0.75;0.70;;;21.30;99.90;;;;;;5016016;28;20058;-65
2022/02/15 12:32:24;;;;;;;0.50;0.50;;;21.40;99.90;;;;;;4999894;28;20048;-64
2022/02/15 12:34:53;;;;;;;4.10;1.88;;;21.50;99.90;;;;;;5019707;28;20041;-66
2022/02/15 12:37:28;;;;;;;4.68;2.78;;;21.60;99.90;;;;;;5020595;28;20050;-63
2022/02/15 12:39:59;;;;;;;1.98;1.63;;;21.60;99.90;;;;;;5017126;28;20052;-63
2022/02/15 12:42:30;;;;;;;16.15;5.95;;;21.70;99.90;;;;;;5008655;28;20041;-67
2022/02/15 12:45:09;;;;;;;10.88;6.38;;;21.70;99.90;;;;;;5003504;28;20476;-63
2022/02/15 12:47:40;;;;;;;51.33;19.55;;;21.80;99.90;;;;;;5022424;28;20065;-68
2022/02/15 12:50:10;;;;;;;43.28;29.95;;;21.70;99.90;;;;;;5023701;28;20049;-67
2022/02/15 12:52:38;;;;;;;43.25;30.95;;;21.70;99.90;;;;;;5021860;28;20053;-68
2022/02/15 12:55:32;;;;;;;71.00;32.70;;;21.70;99.90;;;;;;5020355;28;20037;-66
2022/02/15 12:58:00;;;;;;;60.90;24.83;;;21.70;99.90;;;;;;5015335;28;20061;-70
2022/02/15 13:00:28;;;;;;;45.80;26.08;;;21.70;99.90;;;;;;5019284;28;20053;-68
2022/02/15 13:03:00;;;;;;;41.15;20.35;;;21.70;99.90;;;;;;5021800;28;20052;-61
2022/02/15 13:05:33;;;;;;;37.97;20.67;;;21.70;99.90;;;;;;5019205;28;20045;-65
2022/02/15 13:08:02;;;;;;;52.35;23.20;;;21.70;99.90;;;;;;5015180;28;20549;-64
2022/02/15 13:10:29;;;;;;;34.47;23.38;;;21.60;99.90;;;;;;5003825;28;20049;-61
2022/02/15 13:13:11;;;;;;;27.80;16.17;;;21.60;99.90;;;;;;5018988;28;20073;-63
2022/02/15 13:15:38;;;;;;;30.20;13.95;;;21.60;99.90;;;;;;5016596;28;20246;-63
2022/02/15 13:18:08;;;;;;;40.42;19.90;;;21.50;99.90;;;;;;5020787;28;20049;-61
2022/02/15 13:20:40;;;;;;;33.00;18.48;;;21.50;99.90;;;;;;5013723;28;20050;-62